createdAt,value
2022-08-11T00:02:35.116Z,7.90
2022-08-11T00:05:08.652Z,11.50
2022-08-11T00:10:11.345Z,6.90
2022-08-11T00:12:42.333Z,8.50
2022-08-11T00:15:14.081Z,6.40
2022-08-11T00:17:45.243Z,6.20
2022-08-11T00:20:17.390Z,8.30
2022-08-11T00:22:48.770Z,8.30
2022-08-11T00:25:20.668Z,7.80
2022-08-11T00:27:51.009Z,8.20
2022-08-11T00:30:21.719Z,7.80
2022-08-11T00:32:56.697Z,6.80
2022-08-11T00:35:51.210Z,7.70
2022-08-11T00:38:24.590Z,10.70
2022-08-11T00:40:58.759Z,7.20
2022-08-11T00:43:38.091Z,6.80
2022-08-11T00:46:14.247Z,8.00
2022-08-11T00:48:50.623Z,7.90
2022-08-11T00:51:27.334Z,6.20
2022-08-11T00:54:28.063Z,8.30
2022-08-11T00:57:36.182Z,7.00
2022-08-11T01:00:14.902Z,5.60
2022-08-11T01:03:04.539Z,7.80
2022-08-11T01:05:54.547Z,4.90
2022-08-11T01:08:44.603Z,7.00
2022-08-11T01:11:27.317Z,7.00
2022-08-11T01:14:09.009Z,8.10
2022-08-11T01:16:53.690Z,8.50
2022-08-11T01:20:44.995Z,6.00
2022-08-11T01:22:53.401Z,7.90
2022-08-11T01:25:57.531Z,11.60
2022-08-11T01:28:52.517Z,11.60
2022-08-11T01:31:36.597Z,12.90
2022-08-11T01:34:23.041Z,9.10
2022-08-11T01:37:03.778Z,6.60
2022-08-11T01:39:50.587Z,9.50
2022-08-11T01:42:55.007Z,7.50
2022-08-11T01:48:01.131Z,7.60
2022-08-11T01:50:38.751Z,7.30
2022-08-11T01:53:17.454Z,6.60
2022-08-11T01:55:57.452Z,8.50
2022-08-11T01:58:39.541Z,10.40
2022-08-11T02:01:24.375Z,7.50
2022-08-11T02:03:59.138Z,6.70
2022-08-11T02:06:50.606Z,11.00
2022-08-11T02:09:26.159Z,5.40
2022-08-11T02:11:59.652Z,7.20
2022-08-11T02:14:39.030Z,8.90
2022-08-11T02:17:14.167Z,7.40
2022-08-11T02:20:17.930Z,11.70
2022-08-11T02:23:10.194Z,8.40
2022-08-11T02:25:45.084Z,9.70
2022-08-11T02:28:24.238Z,9.70
2022-08-11T02:32:05.103Z,15.00
2022-08-11T02:34:13.013Z,8.90
2022-08-11T02:36:46.200Z,9.20
2022-08-11T02:39:19.636Z,7.70
2022-08-11T02:45:07.144Z,7.30
2022-08-11T02:48:07.875Z,7.50
2022-08-11T02:50:39.333Z,11.40
2022-08-11T02:53:12.864Z,10.00
2022-08-11T03:01:02.299Z,8.50
2022-08-11T03:03:37.872Z,10.20
2022-08-11T03:06:10.727Z,11.90
2022-08-11T03:08:52.760Z,8.80
2022-08-11T03:12:03.013Z,8.30
2022-08-11T03:14:55.555Z,8.40
2022-08-11T03:17:30.016Z,7.80
2022-08-11T03:20:07.414Z,7.40
2022-08-11T03:22:41.888Z,9.70
2022-08-11T03:25:16.726Z,9.80
2022-08-11T03:27:51.453Z,6.90
2022-08-11T03:30:27.133Z,10.90
2022-08-11T03:33:24.043Z,7.30
2022-08-11T03:36:05.791Z,8.80
2022-08-11T03:38:45.126Z,6.60
2022-08-11T03:42:02.304Z,10.70
2022-08-11T03:44:47.365Z,8.40
2022-08-11T03:47:25.522Z,11.00
2022-08-11T03:50:02.033Z,10.20
2022-08-11T03:52:39.783Z,11.10
2022-08-11T03:55:15.334Z,10.90
2022-08-11T03:58:03.928Z,14.10
2022-08-11T04:00:54.324Z,10.00
2022-08-11T04:03:53.661Z,10.70
2022-08-11T04:06:49.852Z,7.80
2022-08-11T04:09:45.005Z,12.20
2022-08-11T04:12:35.809Z,8.40
2022-08-11T04:15:32.714Z,8.70
2022-08-11T04:18:16.509Z,11.80
2022-08-11T04:20:55.231Z,9.00
2022-08-11T04:24:36.213Z,9.80
2022-08-11T04:26:34.491Z,8.80
2022-08-11T04:29:12.423Z,8.90
2022-08-11T04:31:52.127Z,8.10
2022-08-11T04:34:37.113Z,9.80
2022-08-11T04:37:35.073Z,11.50
2022-08-11T04:40:19.562Z,9.60
2022-08-11T04:43:21.945Z,12.00
2022-08-11T04:46:13.762Z,11.10
2022-08-11T04:49:33.129Z,10.00
2022-08-11T04:52:26.192Z,12.30
2022-08-11T04:55:45.404Z,10.50
2022-08-11T04:58:46.307Z,11.20
2022-08-11T05:01:43.077Z,13.80
2022-08-11T05:04:51.995Z,13.10
2022-08-11T05:07:46.367Z,12.10
2022-08-11T05:12:47.855Z,9.60
2022-08-11T05:15:43.022Z,11.40
2022-08-11T05:18:35.580Z,9.50
2022-08-11T05:21:44.742Z,9.50
2022-08-11T05:24:39.281Z,13.10
2022-08-11T05:27:28.997Z,12.10
2022-08-11T05:30:20.344Z,11.80
2022-08-11T05:33:16.255Z,9.30
2022-08-11T05:36:02.048Z,17.50
2022-08-11T05:38:52.918Z,9.60
2022-08-11T05:41:43.651Z,10.70
2022-08-11T05:44:36.981Z,11.80
2022-08-11T05:47:26.452Z,9.00
2022-08-11T05:50:15.035Z,12.90
2022-08-11T05:53:08.994Z,13.40
2022-08-11T05:56:02.167Z,9.20
2022-08-11T05:58:42.292Z,12.50
2022-08-11T06:01:14.468Z,11.70
2022-08-11T06:04:04.583Z,15.00
2022-08-11T06:06:36.169Z,15.30
2022-08-11T06:09:07.245Z,10.30
2022-08-11T06:11:43.237Z,10.70
2022-08-11T06:14:16.905Z,12.50
2022-08-11T06:16:49.012Z,14.40
2022-08-11T06:19:23.302Z,11.20
2022-08-11T06:21:54.527Z,13.30
2022-08-11T06:24:25.295Z,14.60
2022-08-11T06:27:13.437Z,14.70
2022-08-11T06:29:54.857Z,12.10
2022-08-11T06:32:27.374Z,12.60
2022-08-11T06:35:19.108Z,11.60
2022-08-11T06:37:58.965Z,14.60
2022-08-11T06:40:34.824Z,13.50
2022-08-11T06:43:10.480Z,12.30
2022-08-11T06:45:49.196Z,15.90
2022-08-11T06:48:22.236Z,14.40
2022-08-11T06:51:12.028Z,18.40
2022-08-11T06:53:57.589Z,14.70
2022-08-11T06:57:25.960Z,12.70
2022-08-11T07:00:04.399Z,12.40
2022-08-11T07:02:38.510Z,16.40
2022-08-11T07:05:11.729Z,13.50
2022-08-11T07:08:34.902Z,13.80
2022-08-11T07:11:39.938Z,7.20
2022-08-11T07:14:31.189Z,15.80
2022-08-11T07:17:04.085Z,17.80
2022-08-11T07:19:52.149Z,14.70
2022-08-11T07:22:46.935Z,11.10
2022-08-11T07:25:35.499Z,11.20
2022-08-11T07:28:20.873Z,10.10
2022-08-11T07:30:54.127Z,9.20
2022-08-11T07:36:14.774Z,7.30
2022-08-11T07:38:47.542Z,6.10
2022-08-11T07:41:19.071Z,6.40
2022-08-11T07:43:50.658Z,6.70
2022-08-11T07:46:39.840Z,6.50
2022-08-11T07:49:28.427Z,6.00
2022-08-11T07:52:17.750Z,7.30
2022-08-11T07:54:51.261Z,7.10
2022-08-11T07:58:13.772Z,5.40
2022-08-11T08:00:51.708Z,10.80
2022-08-11T08:03:54.351Z,5.90
2022-08-11T08:06:43.369Z,4.10
2022-08-11T08:09:32.915Z,4.90
2022-08-11T08:12:21.967Z,6.40
2022-08-11T08:15:12.162Z,7.30
2022-08-11T08:18:20.556Z,4.50
2022-08-11T08:20:42.196Z,7.90
2022-08-11T08:23:12.825Z,5.60
2022-08-11T08:25:44.950Z,7.30
2022-08-11T08:28:16.809Z,4.90
2022-08-11T08:30:51.289Z,5.50
2022-08-11T08:33:23.279Z,7.80
2022-08-11T08:36:12.124Z,5.50
2022-08-11T08:38:44.543Z,4.60
2022-08-11T08:41:16.778Z,4.80
2022-08-11T08:43:50.335Z,9.50
2022-08-11T08:46:23.523Z,6.90
2022-08-11T08:48:54.260Z,5.50
2022-08-11T08:52:02.459Z,8.00
2022-08-11T08:54:30.442Z,7.80
2022-08-11T08:57:05.341Z,9.20
2022-08-11T08:59:48.756Z,6.70
2022-08-11T09:02:44.001Z,3.70
2022-08-11T09:05:12.638Z,9.60
2022-08-11T09:07:48.256Z,6.90
2022-08-11T09:10:20.313Z,3.70
2022-08-11T09:12:51.867Z,4.40
2022-08-11T09:15:22.453Z,5.20
2022-08-11T09:18:04.211Z,4.40
2022-08-11T09:20:36.033Z,5.50
2022-08-11T09:26:38.975Z,5.20
2022-08-11T09:29:10.961Z,6.50
2022-08-11T09:31:41.733Z,6.00
2022-08-11T09:34:15.134Z,3.80
2022-08-11T09:37:03.579Z,5.80
2022-08-11T09:39:55.338Z,6.70
2022-08-11T09:42:47.508Z,7.70
2022-08-11T09:45:19.377Z,5.20
2022-08-11T09:47:49.771Z,4.40
2022-08-11T09:50:21.099Z,8.40
2022-08-11T09:55:42.413Z,4.00
2022-08-11T09:58:42.094Z,6.10
2022-08-11T10:01:08.490Z,7.10
2022-08-11T10:03:41.742Z,6.70
2022-08-11T10:06:33.076Z,3.80
2022-08-11T10:09:07.372Z,6.60
2022-08-11T10:11:41.382Z,5.70
2022-08-11T10:14:32.976Z,7.20
2022-08-11T10:17:08.356Z,3.30
2022-08-11T10:19:39.088Z,5.80
2022-08-11T10:22:27.921Z,4.30
2022-08-11T10:25:19.928Z,4.60
2022-08-11T10:28:29.086Z,3.60
2022-08-11T10:31:11.230Z,5.40
2022-08-11T10:34:04.208Z,5.00
2022-08-11T10:36:35.935Z,5.90
2022-08-11T10:39:07.361Z,4.60
2022-08-11T10:42:06.382Z,3.70
2022-08-11T10:44:41.363Z,5.40
2022-08-11T10:47:30.291Z,6.20
2022-08-11T10:50:19.132Z,5.40
2022-08-11T10:53:07.793Z,4.40
2022-08-11T10:55:58.379Z,4.60
2022-08-11T10:58:49.037Z,6.40
2022-08-11T11:01:23.993Z,5.20
2022-08-11T11:03:58.235Z,5.60
2022-08-11T11:06:30.409Z,6.50
2022-08-11T11:09:04.457Z,9.80
2022-08-11T11:11:55.426Z,7.20
2022-08-11T11:14:49.777Z,8.20
2022-08-11T11:17:43.209Z,3.80
2022-08-11T11:20:34.586Z,6.80
2022-08-11T11:23:08.224Z,4.50
2022-08-11T11:26:06.792Z,6.70
2022-08-11T11:28:47.422Z,6.50
2022-08-11T11:31:24.956Z,5.30
2022-08-11T11:34:11.837Z,7.50
2022-08-11T11:36:46.861Z,3.70
2022-08-11T11:39:20.577Z,4.00
2022-08-11T11:41:52.405Z,9.60
2022-08-11T11:44:24.075Z,7.80
2022-08-11T11:46:56.785Z,10.40
2022-08-11T11:49:29.347Z,7.40
2022-08-11T11:52:00.950Z,4.00
2022-08-11T11:54:34.202Z,4.40
2022-08-11T11:57:30.537Z,4.70
2022-08-11T12:00:19.313Z,4.00
2022-08-11T12:02:50.299Z,3.30
2022-08-11T12:05:22.142Z,4.00
2022-08-11T12:08:13.102Z,7.60
2022-08-11T12:10:44.879Z,7.20
2022-08-11T12:13:33.252Z,5.30
2022-08-11T12:16:33.059Z,5.00
2022-08-11T12:19:00.234Z,4.50
2022-08-11T12:21:31.583Z,3.20
2022-08-11T12:24:20.872Z,3.50
2022-08-11T12:27:16.201Z,4.80
2022-08-11T12:29:54.414Z,3.30
2022-08-11T12:32:29.195Z,8.10
2022-08-11T12:34:59.724Z,4.50
2022-08-11T12:37:32.412Z,8.40
2022-08-11T12:43:38.388Z,5.10
2022-08-11T12:46:11.572Z,7.50
2022-08-11T12:49:03.753Z,5.20
2022-08-11T12:52:01.491Z,7.10
2022-08-11T12:54:58.041Z,4.50
2022-08-11T12:57:48.174Z,5.70
2022-08-11T13:00:37.170Z,8.90
2022-08-11T13:03:26.035Z,4.90
2022-08-11T13:05:58.296Z,6.30
2022-08-11T13:08:30.045Z,9.70
2022-08-11T13:11:19.591Z,11.30
2022-08-11T13:13:54.256Z,4.70
2022-08-11T13:16:29.133Z,8.80
2022-08-11T13:19:01.503Z,7.70
2022-08-11T13:21:32.552Z,7.30
2022-08-11T13:24:03.830Z,7.50
2022-08-11T13:26:43.154Z,6.10
2022-08-11T13:29:24.241Z,5.50
2022-08-11T13:31:56.576Z,7.40
2022-08-11T13:34:28.171Z,7.70
2022-08-11T13:37:01.644Z,6.30
2022-08-11T13:42:02.877Z,6.80
2022-08-11T13:44:37.114Z,6.40
2022-08-11T13:47:09.317Z,10.20
2022-08-11T13:49:41.271Z,6.20
2022-08-11T13:52:14.279Z,5.00
2022-08-11T13:54:48.191Z,8.80
2022-08-11T13:58:08.383Z,8.40
2022-08-11T14:00:13.223Z,8.50
2022-08-11T14:02:57.453Z,9.70
2022-08-11T14:05:29.308Z,6.20
2022-08-11T14:08:02.417Z,6.10
2022-08-11T14:10:37.315Z,7.60
2022-08-11T14:13:42.384Z,4.90
2022-08-11T14:16:18.919Z,8.40
2022-08-11T14:18:51.748Z,5.30
2022-08-11T14:21:42.915Z,8.80
2022-08-11T14:24:14.007Z,6.40
2022-08-11T14:26:45.526Z,5.40
2022-08-11T14:29:17.806Z,6.20
2022-08-11T14:31:49.148Z,6.60
2022-08-11T14:34:21.458Z,6.40
2022-08-11T14:36:53.568Z,4.40
2022-08-11T14:39:27.102Z,5.70
2022-08-11T14:42:15.709Z,4.80
2022-08-11T14:45:05.509Z,6.00
2022-08-11T14:47:37.240Z,5.40
2022-08-11T14:50:10.879Z,11.00
2022-08-11T14:52:52.768Z,5.40
2022-08-11T14:55:42.453Z,4.00
2022-08-11T14:58:14.338Z,3.50
2022-08-11T15:00:45.208Z,5.30
2022-08-11T15:03:16.403Z,6.90
2022-08-11T15:05:57.364Z,3.50
2022-08-11T15:08:50.180Z,8.20
2022-08-11T15:11:40.253Z,4.90
2022-08-11T15:14:11.241Z,7.30
2022-08-11T15:17:00.515Z,8.10
2022-08-11T15:19:41.012Z,8.20
2022-08-11T15:22:30.514Z,8.50
2022-08-11T15:25:01.084Z,7.50
2022-08-11T15:27:51.877Z,5.00
2022-08-11T15:30:41.092Z,5.90
2022-08-11T15:33:30.483Z,6.30
2022-08-11T15:36:20.678Z,5.80
2022-08-11T15:38:55.793Z,5.50
2022-08-11T15:41:58.598Z,7.20
2022-08-11T15:45:05.002Z,6.90
2022-08-11T15:47:38.824Z,7.00
2022-08-11T15:50:16.249Z,7.60
2022-08-11T15:52:49.041Z,4.80
2022-08-11T15:55:19.924Z,5.20
2022-08-11T15:58:09.184Z,7.30
2022-08-11T16:01:04.447Z,4.70
2022-08-11T16:04:07.753Z,6.40
2022-08-11T16:06:43.963Z,6.20
2022-08-11T16:09:21.763Z,5.40
2022-08-11T16:11:54.279Z,4.10
2022-08-11T16:14:43.262Z,6.20
2022-08-11T16:17:15.515Z,4.20
2022-08-11T16:19:47.271Z,6.00
2022-08-11T16:22:21.992Z,6.20
2022-08-11T16:27:01.514Z,7.50
2022-08-11T16:27:45.475Z,5.10
2022-08-11T16:30:16.110Z,5.40
2022-08-11T16:32:48.384Z,7.80
2022-08-11T16:35:37.352Z,6.90
2022-08-11T16:38:26.609Z,6.30
2022-08-11T16:40:57.952Z,8.70
2022-08-11T16:43:47.729Z,6.70
2022-08-11T16:46:35.069Z,7.60
2022-08-11T16:49:07.558Z,7.80
2022-08-11T16:51:37.955Z,6.60
2022-08-11T16:54:08.640Z,6.40
2022-08-11T16:56:42.078Z,8.40
2022-08-11T16:59:18.532Z,9.40
2022-08-11T17:01:53.524Z,6.20
2022-08-11T17:04:47.869Z,5.70
2022-08-11T17:07:41.944Z,8.50
2022-08-11T17:10:51.959Z,9.60
2022-08-11T17:13:29.313Z,6.90
2022-08-11T17:16:08.672Z,6.10
2022-08-11T17:18:44.209Z,5.80
2022-08-11T17:21:16.653Z,7.30
2022-08-11T17:23:50.348Z,4.40
2022-08-11T17:26:22.997Z,4.60
2022-08-11T17:28:56.399Z,5.00
2022-08-11T17:31:46.001Z,5.10
2022-08-11T17:34:34.447Z,5.70
2022-08-11T17:37:06.146Z,6.50
2022-08-11T17:39:37.075Z,4.40
2022-08-11T17:42:26.611Z,7.10
2022-08-11T17:45:15.370Z,4.60
2022-08-11T17:48:04.225Z,6.50
2022-08-11T17:50:35.545Z,4.20
2022-08-11T17:53:24.267Z,5.40
2022-08-11T17:56:13.333Z,5.80
2022-08-11T17:59:02.522Z,7.40
2022-08-11T18:01:35.685Z,6.40
2022-08-11T18:04:07.309Z,6.90
2022-08-11T18:06:38.745Z,6.60
2022-08-11T18:09:29.487Z,5.80
2022-08-11T18:12:18.714Z,6.00
2022-08-11T18:15:07.882Z,6.90
2022-08-11T18:17:55.987Z,5.20
2022-08-11T18:20:44.615Z,5.00
2022-08-11T18:23:45.996Z,5.50
2022-08-11T18:26:38.166Z,5.80
2022-08-11T18:29:26.826Z,9.10
2022-08-11T18:32:22.189Z,7.30
2022-08-11T18:35:13.969Z,9.60
2022-08-11T18:38:06.093Z,4.70
2022-08-11T18:40:54.639Z,5.90
2022-08-11T18:43:45.039Z,6.20
2022-08-11T18:46:35.069Z,5.30
2022-08-11T18:49:35.476Z,5.60
2022-08-11T18:52:36.801Z,6.10
2022-08-11T18:55:28.930Z,4.20
2022-08-11T18:58:19.547Z,4.30
2022-08-11T19:01:09.170Z,3.30
2022-08-11T19:04:10.495Z,4.60
2022-08-11T19:07:01.166Z,4.70
2022-08-11T19:09:50.729Z,5.30
2022-08-11T19:12:40.312Z,4.70
2022-08-11T19:15:30.123Z,4.30
2022-08-11T19:18:18.731Z,6.10
2022-08-11T19:21:06.951Z,4.60
2022-08-11T19:23:57.892Z,3.80
2022-08-11T19:26:46.868Z,4.50
2022-08-11T19:30:11.827Z,4.40
2022-08-11T19:32:48.816Z,4.80
2022-08-11T19:35:38.007Z,4.40
2022-08-11T19:38:28.105Z,4.70
2022-08-11T19:41:18.462Z,4.90
2022-08-11T19:44:27.005Z,4.70
2022-08-11T19:47:17.355Z,4.50
2022-08-11T19:50:07.692Z,3.90
2022-08-11T19:53:00.469Z,6.80
2022-08-11T19:55:49.189Z,5.00
2022-08-11T19:58:37.750Z,5.10
2022-08-11T20:01:25.959Z,7.20
2022-08-11T20:04:14.711Z,6.20
2022-08-11T20:07:02.886Z,5.10
2022-08-11T20:10:06.108Z,4.10
2022-08-11T20:12:56.508Z,4.00
2022-08-11T20:15:45.635Z,5.10
2022-08-11T20:18:35.072Z,4.50
2022-08-11T20:21:25.562Z,6.80
2022-08-11T20:24:19.591Z,5.60
2022-08-11T20:27:18.558Z,4.60
2022-08-11T20:30:13.376Z,5.80
2022-08-11T20:33:02.776Z,6.50
2022-08-11T20:35:51.708Z,4.40
2022-08-11T20:38:41.583Z,6.70
2022-08-11T20:41:30.141Z,5.70
2022-08-11T20:44:19.411Z,6.10
2022-08-11T20:47:13.127Z,5.20
2022-08-11T20:53:10.663Z,6.00
2022-08-11T20:55:59.001Z,6.50
2022-08-11T20:59:14.349Z,7.30
2022-08-11T21:01:56.285Z,5.30
2022-08-11T21:04:54.427Z,5.10
2022-08-11T21:07:55.610Z,6.00
2022-08-11T21:10:48.707Z,4.50
2022-08-11T21:13:42.068Z,6.40
2022-08-11T21:16:32.007Z,5.60
2022-08-11T21:19:59.514Z,5.40
2022-08-11T21:22:33.914Z,4.20
2022-08-11T21:25:24.058Z,5.30
2022-08-11T21:28:16.823Z,4.80
2022-08-11T21:31:06.091Z,4.40
2022-08-11T21:33:54.645Z,4.50
2022-08-11T21:36:43.602Z,7.10
2022-08-11T21:39:32.920Z,5.70
2022-08-11T21:42:22.647Z,4.90
2022-08-11T21:45:10.691Z,5.10
2022-08-11T21:48:01.454Z,5.10
2022-08-11T21:50:49.743Z,5.50
2022-08-11T21:53:38.900Z,6.10
2022-08-11T21:56:29.092Z,5.70
2022-08-11T21:59:18.262Z,5.50
2022-08-11T22:02:11.935Z,7.10
2022-08-11T22:05:01.072Z,8.30
2022-08-11T22:07:49.614Z,6.70
2022-08-11T22:10:41.797Z,7.30
2022-08-11T22:13:31.870Z,6.70
2022-08-11T22:16:20.827Z,7.80
2022-08-11T22:19:09.810Z,6.10
2022-08-11T22:22:03.816Z,6.10
2022-08-11T22:24:53.136Z,7.80
2022-08-11T22:27:42.704Z,8.80
2022-08-11T22:30:30.639Z,10.30
2022-08-11T22:33:24.370Z,8.20
2022-08-11T22:36:15.432Z,8.70
2022-08-11T22:39:05.104Z,7.20
2022-08-11T22:41:52.890Z,7.70
2022-08-11T22:44:41.601Z,6.40
2022-08-11T22:47:38.273Z,7.10
2022-08-11T22:50:29.447Z,10.50
2022-08-11T22:53:18.714Z,9.30
2022-08-11T22:56:07.779Z,6.70
2022-08-11T22:58:55.920Z,5.70
2022-08-11T23:01:55.339Z,6.50
2022-08-11T23:04:46.337Z,5.20
2022-08-11T23:07:49.697Z,6.30
2022-08-11T23:10:40.740Z,5.90
2022-08-11T23:13:29.388Z,6.70
2022-08-11T23:16:17.631Z,11.40
2022-08-11T23:19:07.458Z,7.90
2022-08-11T23:21:56.543Z,7.30
2022-08-11T23:24:45.638Z,6.90
2022-08-11T23:27:34.800Z,5.60
2022-08-11T23:30:23.767Z,5.50
2022-08-11T23:33:15.474Z,5.40
2022-08-11T23:36:05.744Z,6.40
2022-08-11T23:38:54.817Z,5.70
2022-08-11T23:41:43.510Z,4.80
2022-08-11T23:44:31.376Z,6.40
2022-08-11T23:47:20.062Z,7.50
2022-08-11T23:50:08.532Z,5.30
2022-08-11T23:52:57.083Z,7.90
2022-08-11T23:55:46.145Z,6.60
2022-08-11T23:58:35.251Z,7.50
